Henfield, United Kingdom
Current Conditions -  °F | °C
As of 10:20 AM on Thursday 23 Oct 2014 (Local Time) from EGKA Reporting Station
Broken Clouds Broken Clouds  
Wind Chill: 55°   Ceiling: 3400
Heat Index: 55°   Visibility: 6mi
Dew Point: 54°   Wind: 10mph
Humidity: 94%   Direction: 260°W
Pressure: 30.15"   Gusts: NA
Location:  50.93°N, 0.27°W
Report Text: EGKA 230920Z 26009KT 9999 FEW012 BKN034 13/12 Q1021
Loading
Personal Weather Stations






























Interactive Weather Map
Tropical Storm Tracking
New forecast layout! Learn more

10-Day Weather Forecast

Advertisements
Track Severe Weather on mobile